Time;durP1;ratioP1;P1;durP2;ratioP2;P2;SDS_P1;SDS_P2;PMS_P1;PMS_P2;Temp;Humidity;BMP_temperature;BMP_pressure;BME280_temperature;BME280_humidity;BME280_pressure;Samples;Min_cycle;Max_cycle;Signal;HPM_P1;HPM_P2
2022/07/22 00:00:32;;;;;;;1.02;0.95;;;23.90;65.10;;;;;;6242882;22;43941;-60
2022/07/22 00:02:59;;;;;;;1.67;1.10;;;23.90;65.10;;;;;;6244000;22;43414;-60
2022/07/22 00:05:27;;;;;;;1.27;1.10;;;23.90;65.10;;;;;;6242532;22;43594;-61
2022/07/22 00:07:55;;;;;;;1.02;1.02;;;23.80;65.00;;;;;;6243256;22;45006;-60
2022/07/22 00:10:23;;;;;;;1.38;1.10;;;23.80;65.10;;;;;;6242966;22;43391;-60
2022/07/22 00:12:50;;;;;;;1.80;1.15;;;23.80;65.10;;;;;;6242669;22;43403;-60
2022/07/22 00:15:18;;;;;;;1.60;1.10;;;23.80;65.10;;;;;;6243677;22;43486;-61
2022/07/22 00:17:45;;;;;;;1.20;1.08;;;23.80;65.10;;;;;;6242949;22;44907;-60
2022/07/22 00:20:13;;;;;;;2.50;1.08;;;23.80;65.10;;;;;;6242248;22;43708;-60
2022/07/22 00:22:40;;;;;;;1.50;1.10;;;23.80;65.10;;;;;;6244107;22;43415;-61
2022/07/22 00:25:08;;;;;;;1.67;1.10;;;23.80;65.10;;;;;;6243603;22;43621;-60
2022/07/22 00:27:36;;;;;;;2.38;1.13;;;23.80;65.10;;;;;;6242525;22;44951;-60
2022/07/22 00:30:04;;;;;;;1.23;1.08;;;23.80;65.10;;;;;;6242669;22;43443;-60
2022/07/22 00:32:32;;;;;;;1.13;0.80;;;23.80;65.10;;;;;;6243529;22;43399;-60
2022/07/22 00:34:59;;;;;;;1.13;1.02;;;23.80;65.10;;;;;;6216023;22;43575;-60
2022/07/22 00:37:27;;;;;;;1.38;1.02;;;23.70;65.00;;;;;;6242853;22;44656;-60
2022/07/22 00:39:54;;;;;;;1.70;1.02;;;23.80;65.10;;;;;;6242169;22;43414;-60
2022/07/22 00:42:22;;;;;;;1.80;1.23;;;23.80;65.10;;;;;;6242610;22;43474;-60
2022/07/22 00:44:50;;;;;;;1.85;1.10;;;23.70;65.00;;;;;;6216566;22;43605;-61
2022/07/22 00:47:18;;;;;;;1.80;1.05;;;23.70;65.10;;;;;;6215605;22;44911;-60
2022/07/22 00:49:45;;;;;;;1.65;1.20;;;23.70;65.10;;;;;;6242658;22;43966;-60
2022/07/22 00:52:13;;;;;;;1.30;1.10;;;23.70;65.10;;;;;;6243136;22;43404;-60
2022/07/22 00:54:41;;;;;;;0.93;0.93;;;23.70;65.10;;;;;;6242209;22;43589;-60
2022/07/22 00:57:08;;;;;;;1.27;1.10;;;23.70;65.10;;;;;;6243228;22;44929;-60
2022/07/22 00:59:36;;;;;;;1.65;0.88;;;23.70;65.10;;;;;;6242476;22;43436;-60
2022/07/22 01:02:04;;;;;;;1.60;1.40;;;23.70;65.10;;;;;;6242167;22;43407;-60
2022/07/22 01:04:31;;;;;;;2.03;1.30;;;23.70;65.10;;;;;;6215865;22;43411;-60
2022/07/22 01:06:59;;;;;;;1.42;0.90;;;23.60;65.00;;;;;;6243322;22;44299;-60
2022/07/22 01:09:26;;;;;;;1.85;1.00;;;23.70;65.10;;;;;;6241746;22;43382;-60
2022/07/22 01:11:54;;;;;;;0.90;0.90;;;23.70;65.10;;;;;;6243312;22;43390;-60
2022/07/22 01:14:21;;;;;;;1.08;0.98;;;23.70;65.10;;;;;;6243114;22;44277;-60
2022/07/22 01:16:49;;;;;;;1.05;1.00;;;23.60;65.00;;;;;;6241848;22;45059;-61
2022/07/22 01:19:17;;;;;;;1.15;1.05;;;23.60;65.00;;;;;;6190688;22;43376;-60
2022/07/22 01:21:45;;;;;;;1.48;0.80;;;23.60;65.00;;;;;;6242799;22;43459;-60
2022/07/22 01:24:13;;;;;;;1.38;1.13;;;23.60;65.00;;;;;;6190525;22;43481;-60
2022/07/22 01:26:40;;;;;;;0.93;0.90;;;23.60;65.00;;;;;;6242770;22;44017;-61
2022/07/22 01:29:08;;;;;;;1.02;0.93;;;23.60;65.10;;;;;;6215406;22;43385;-60
2022/07/22 01:31:36;;;;;;;1.40;1.27;;;23.60;65.10;;;;;;6241994;22;43399;-60
2022/07/22 01:34:03;;;;;;;1.08;0.93;;;23.60;65.10;;;;;;6216014;22;43552;-60
2022/07/22 01:36:35;;;;;;;1.15;1.05;;;23.60;65.10;;;;;;6214946;22;44256;-60
2022/07/22 01:39:03;;;;;;;1.20;1.10;;;23.60;65.00;;;;;;6215879;22;43888;-60
2022/07/22 01:41:31;;;;;;;1.50;1.05;;;23.60;65.10;;;;;;6214930;22;43448;-60
2022/07/22 01:43:59;;;;;;;1.80;1.10;;;23.60;65.00;;;;;;6215908;22;43437;-60
2022/07/22 01:46:26;;;;;;;1.10;1.00;;;23.60;65.00;;;;;;6242601;22;44960;-61
2022/07/22 01:48:54;;;;;;;1.67;1.20;;;23.60;65.00;;;;;;6215635;22;43983;-60
2022/07/22 01:51:22;;;;;;;1.40;1.30;;;23.50;65.00;;;;;;6214599;22;43448;-60
2022/07/22 01:53:50;;;;;;;1.27;1.17;;;23.60;65.00;;;;;;6215932;22;43783;-60
2022/07/22 01:56:18;;;;;;;0.80;0.80;;;23.50;65.00;;;;;;6215114;22;44005;-60
2022/07/22 01:58:49;;;;;;;3.08;1.10;;;23.50;65.00;;;;;;6215670;22;43437;-60
2022/07/22 02:01:21;;;;;;;1.73;1.17;;;23.50;65.00;;;;;;6215374;22;43460;-60
2022/07/22 02:03:48;;;;;;;2.15;1.15;;;23.50;65.10;;;;;;6242663;22;43460;-60
2022/07/22 02:06:16;;;;;;;1.38;1.15;;;23.50;65.00;;;;;;6214674;22;43764;-60
2022/07/22 02:08:43;;;;;;;1.10;1.00;;;23.50;65.00;;;;;;6215607;22;45024;-60
2022/07/22 02:11:19;;;;;;;1.80;0.95;;;23.50;65.00;;;;;;6215133;22;43499;-60
2022/07/22 02:13:55;;;;;;;1.42;1.20;;;23.50;65.00;;;;;;6215270;22;43394;-60
2022/07/22 02:16:24;;;;;;;1.13;0.85;;;23.50;65.00;;;;;;6215114;22;43760;-60
2022/07/22 02:18:52;;;;;;;2.05;1.02;;;23.50;65.00;;;;;;6214657;22;43387;-60
2022/07/22 02:21:21;;;;;;;1.15;0.90;;;23.50;65.00;;;;;;6241655;22;43450;-60
2022/07/22 02:23:50;;;;;;;1.47;1.10;;;23.50;65.00;;;;;;6215291;22;43563;-60
2022/07/22 02:26:18;;;;;;;1.70;1.00;;;23.50;65.00;;;;;;6214327;22;43867;-60
2022/07/22 02:28:46;;;;;;;1.40;1.10;;;23.50;65.00;;;;;;6242222;22;43918;-60
2022/07/22 02:31:13;;;;;;;1.30;0.98;;;23.40;65.00;;;;;;6214504;22;43717;-60
2022/07/22 02:33:41;;;;;;;1.20;0.98;;;23.40;65.00;;;;;;6214283;22;43440;-60
2022/07/22 02:36:09;;;;;;;0.93;0.90;;;23.40;65.00;;;;;;6214830;22;45081;-61
2022/07/22 02:38:37;;;;;;;1.20;1.10;;;23.40;65.00;;;;;;6214993;22;44023;-60
2022/07/22 02:41:05;;;;;;;1.95;1.30;;;23.40;65.00;;;;;;6214229;22;43350;-60
2022/07/22 02:43:34;;;;;;;0.85;0.85;;;23.40;65.00;;;;;;6215109;22;43636;-60
2022/07/22 02:46:02;;;;;;;1.23;1.02;;;23.40;65.00;;;;;;6214896;22;43748;-60
2022/07/22 02:48:29;;;;;;;1.50;1.00;;;23.40;65.00;;;;;;6214464;22;43735;-60
2022/07/22 02:50:57;;;;;;;1.10;0.93;;;23.40;65.00;;;;;;6214771;22;43426;-60
2022/07/22 02:53:27;;;;;;;1.45;1.10;;;23.40;65.00;;;;;;6215528;22;43534;-60
2022/07/22 02:55:56;;;;;;;1.00;0.85;;;23.40;65.00;;;;;;6214462;22;44983;-60
2022/07/22 02:58:24;;;;;;;1.50;1.02;;;23.40;65.00;;;;;;6241724;22;44258;-60
2022/07/22 03:00:51;;;;;;;1.00;1.00;;;23.40;65.00;;;;;;6214364;22;43439;-60
2022/07/22 03:03:18;;;;;;;1.38;1.00;;;23.40;65.00;;;;;;6216050;22;43473;-60
2022/07/22 03:05:46;;;;;;;1.23;1.13;;;23.40;65.00;;;;;;6216190;22;45097;-60
2022/07/22 03:08:22;;;;;;;2.13;1.00;;;23.40;65.00;;;;;;6216074;22;44282;-60
2022/07/22 03:10:49;;;;;;;0.88;0.88;;;23.40;65.00;;;;;;6215886;22;43417;-60
2022/07/22 03:13:17;;;;;;;1.20;1.08;;;23.30;65.00;;;;;;6216195;22;43540;-60
2022/07/22 03:15:44;;;;;;;1.80;1.20;;;23.30;65.00;;;;;;6215505;22;45051;-60
2022/07/22 03:18:13;;;;;;;1.25;0.90;;;23.30;65.00;;;;;;6243617;22;44047;-60
2022/07/22 03:20:41;;;;;;;1.17;1.00;;;23.30;65.00;;;;;;6215401;22;43463;-60
2022/07/22 03:23:08;;;;;;;1.23;1.10;;;23.30;65.00;;;;;;6216056;22;43404;-60
2022/07/22 03:25:38;;;;;;;1.65;1.10;;;23.30;65.00;;;;;;6216074;22;44648;-60
2022/07/22 03:28:06;;;;;;;0.98;0.90;;;23.30;65.00;;;;;;6242670;22;43433;-61
2022/07/22 03:30:35;;;;;;;0.82;0.82;;;23.30;65.00;;;;;;6214846;22;43395;-60
2022/07/22 03:33:03;;;;;;;1.85;1.30;;;23.30;65.00;;;;;;6216698;22;43390;-60
2022/07/22 03:35:35;;;;;;;1.35;0.90;;;23.30;64.90;;;;;;6216410;22;45088;-60
2022/07/22 03:38:03;;;;;;;0.90;0.90;;;23.30;65.30;;;;;;6216005;22;43368;-60
2022/07/22 03:40:31;;;;;;;1.10;1.00;;;23.30;65.00;;;;;;6215697;22;43469;-60
2022/07/22 03:42:59;;;;;;;0.80;0.80;;;23.30;65.00;;;;;;6216929;22;43471;-60
2022/07/22 03:45:26;;;;;;;0.80;0.80;;;23.20;64.90;;;;;;6215668;22;43782;-60
2022/07/22 03:47:57;;;;;;;1.13;0.90;;;23.30;65.00;;;;;;6216279;22;43997;-59
2022/07/22 03:50:28;;;;;;;2.78;0.90;;;23.20;64.90;;;;;;6215248;22;43418;-60
2022/07/22 03:52:56;;;;;;;2.03;1.13;;;23.20;64.90;;;;;;6216625;22;43420;-60
2022/07/22 03:55:23;;;;;;;1.38;0.90;;;23.20;64.90;;;;;;6215941;22;44000;-60
2022/07/22 03:57:54;;;;;;;1.67;1.05;;;23.20;64.90;;;;;;6215997;22;44097;-60
2022/07/22 04:00:27;;;;;;;1.08;1.00;;;23.20;65.00;;;;;;6215294;22;43383;-60
2022/07/22 04:02:55;;;;;;;0.95;0.95;;;23.20;65.00;;;;;;6216233;22;43526;-60
2022/07/22 04:06:01;;;;;;;1.23;1.13;;;23.20;65.00;;;;;;6206693;22;44084;-60
2022/07/22 04:08:39;;;;;;;0.82;0.80;;;23.20;64.90;;;;;;6216274;22;43317;-60
2022/07/22 04:11:07;;;;;;;1.00;0.90;;;23.20;65.00;;;;;;6216352;22;43619;-60
2022/07/22 04:13:35;;;;;;;1.33;0.90;;;23.20;65.00;;;;;;6242986;22;43474;-60
2022/07/22 04:16:03;;;;;;;1.13;0.95;;;23.20;64.90;;;;;;6216041;22;44011;-60
2022/07/22 04:18:31;;;;;;;1.83;1.00;;;23.20;64.90;;;;;;6215574;22;43405;-60
2022/07/22 04:21:00;;;;;;;1.23;1.00;;;23.20;65.00;;;;;;6243049;22;43393;-60
2022/07/22 04:23:30;;;;;;;0.90;0.90;;;23.20;65.00;;;;;;6243093;22;43511;-60
2022/07/22 04:26:09;;;;;;;1.08;1.00;;;23.20;65.60;;;;;;6215590;22;43865;-60
2022/07/22 04:28:36;;;;;;;0.95;0.90;;;23.20;65.00;;;;;;6243218;22;43890;-60
2022/07/22 04:31:04;;;;;;;1.58;1.00;;;23.20;65.00;;;;;;6215164;22;43479;-60
2022/07/22 04:33:33;;;;;;;1.48;0.82;;;23.10;64.90;;;;;;6215800;22;43474;-60
2022/07/22 04:36:02;;;;;;;1.60;1.20;;;23.10;64.90;;;;;;6216200;22;44776;-60
2022/07/22 04:38:30;;;;;;;0.93;0.70;;;23.10;64.90;;;;;;6242854;22;43681;-61
2022/07/22 04:41:01;;;;;;;0.93;0.88;;;23.10;64.90;;;;;;6215860;22;43432;-60
2022/07/22 04:43:29;;;;;;;1.15;1.00;;;23.10;65.00;;;;;;6215897;22;43516;-60
2022/07/22 04:45:57;;;;;;;1.17;0.75;;;23.10;65.00;;;;;;6215972;22;44903;-60
2022/07/22 04:48:29;;;;;;;1.67;1.10;;;23.10;65.00;;;;;;6215549;22;43443;-60
2022/07/22 04:51:01;;;;;;;0.93;0.90;;;23.10;64.90;;;;;;6215272;22;43500;-60
2022/07/22 04:53:30;;;;;;;1.27;0.85;;;23.10;64.90;;;;;;6215640;22;43516;-60
2022/07/22 04:56:14;;;;;;;1.15;1.00;;;23.10;65.00;;;;;;6215789;22;44822;-60
2022/07/22 04:58:43;;;;;;;1.73;0.98;;;23.10;65.00;;;;;;6215380;22;43370;-60
2022/07/22 05:01:11;;;;;;;1.30;0.80;;;23.10;65.00;;;;;;6215101;22;43488;-60
2022/07/22 05:03:40;;;;;;;0.90;0.80;;;23.10;65.00;;;;;;6215970;22;43374;-60
2022/07/22 05:06:08;;;;;;;0.90;0.90;;;23.10;64.90;;;;;;6242654;22;43781;-60
2022/07/22 05:08:39;;;;;;;1.65;0.90;;;23.10;64.90;;;;;;6215452;22;43629;-60
2022/07/22 05:11:07;;;;;;;0.85;0.85;;;23.10;65.00;;;;;;6215491;22;43421;-60
2022/07/22 05:13:35;;;;;;;0.90;0.90;;;23.10;65.00;;;;;;6215912;22;43365;-60
2022/07/22 05:16:06;;;;;;;0.70;0.70;;;23.00;64.90;;;;;;6215657;22;46281;-60
2022/07/22 05:18:35;;;;;;;2.03;0.88;;;23.00;65.00;;;;;;6215694;22;44084;-60
2022/07/22 05:21:04;;;;;;;1.30;1.17;;;23.00;64.90;;;;;;6242927;22;43404;-60
2022/07/22 05:23:32;;;;;;;0.80;0.80;;;23.00;64.90;;;;;;6215659;22;43434;-59
2022/07/22 05:26:00;;;;;;;1.10;0.73;;;23.00;65.00;;;;;;6215060;22;44796;-60
2022/07/22 05:28:28;;;;;;;2.03;0.70;;;23.00;65.00;;;;;;6242952;22;44301;-60
2022/07/22 05:30:56;;;;;;;2.15;1.00;;;23.00;64.90;;;;;;6209800;22;43459;-59
2022/07/22 05:33:26;;;;;;;1.00;0.90;;;23.00;65.00;;;;;;6211303;22;43766;-60
2022/07/22 05:35:53;;;;;;;0.70;0.70;;;23.00;64.90;;;;;;6211896;22;45001;-60
2022/07/22 05:38:21;;;;;;;1.17;0.77;;;23.00;65.00;;;;;;6210548;22;43744;-60
2022/07/22 05:40:48;;;;;;;1.15;0.80;;;23.00;65.00;;;;;;6210332;22;43365;-60
2022/07/22 05:43:16;;;;;;;0.93;0.70;;;23.00;64.90;;;;;;6210280;22;43455;-60
2022/07/22 05:45:43;;;;;;;1.05;0.95;;;23.00;64.90;;;;;;6212084;22;44949;-60
2022/07/22 05:48:11;;;;;;;1.13;0.80;;;23.00;64.90;;;;;;6210198;22;43764;-59
2022/07/22 05:50:40;;;;;;;1.10;0.80;;;23.00;64.90;;;;;;6209860;22;43414;-60
2022/07/22 05:53:08;;;;;;;1.95;1.00;;;23.00;64.90;;;;;;6212651;22;43415;-60
2022/07/22 05:55:36;;;;;;;1.20;0.63;;;23.00;64.80;;;;;;6210213;22;44006;-59
2022/07/22 05:58:03;;;;;;;0.68;0.60;;;23.00;64.80;;;;;;6211509;22;44048;-60
2022/07/22 06:00:31;;;;;;;1.10;0.80;;;22.90;64.80;;;;;;6210106;22;43352;-60
2022/07/22 06:02:58;;;;;;;1.08;0.80;;;22.90;64.90;;;;;;6211068;22;43520;-60
2022/07/22 06:05:26;;;;;;;0.75;0.75;;;22.90;64.90;;;;;;6209694;22;44910;-60
2022/07/22 06:08:06;;;;;;;0.70;0.70;;;22.90;65.00;;;;;;6210423;22;43723;-60
2022/07/22 06:10:47;;;;;;;0.63;0.63;;;22.90;65.00;;;;;;6210624;22;43426;-59
2022/07/22 06:13:15;;;;;;;3.85;1.13;;;22.90;65.00;;;;;;6210063;22;43440;-59
2022/07/22 06:15:43;;;;;;;1.13;0.80;;;22.90;65.00;;;;;;6210061;22;44989;-60
2022/07/22 06:18:12;;;;;;;0.98;0.80;;;22.90;64.90;;;;;;6209429;22;43353;-60
2022/07/22 06:20:39;;;;;;;2.13;0.80;;;22.90;65.00;;;;;;6210047;22;43452;-59
2022/07/22 06:23:07;;;;;;;0.70;0.70;;;22.90;65.00;;;;;;6210661;22;43409;-59
2022/07/22 06:25:35;;;;;;;1.15;0.70;;;22.90;65.00;;;;;;6183941;22;45556;-59
2022/07/22 06:28:18;;;;;;;1.30;1.02;;;22.90;65.00;;;;;;6210103;22;43403;-60
2022/07/22 06:30:45;;;;;;;0.88;0.73;;;22.90;65.00;;;;;;6209251;22;43471;-60
2022/07/22 06:33:14;;;;;;;0.60;0.60;;;22.90;65.00;;;;;;6210024;22;43484;-60
2022/07/22 06:35:42;;;;;;;0.90;0.80;;;22.90;65.00;;;;;;6209933;22;44919;-60
2022/07/22 06:38:10;;;;;;;1.20;1.00;;;22.90;65.00;;;;;;6211260;22;43390;-60
2022/07/22 06:41:13;;;;;;;1.50;0.80;;;22.90;65.00;;;;;;6212090;22;43408;-60
2022/07/22 06:43:51;;;;;;;0.95;0.80;;;22.90;65.00;;;;;;6211018;22;43359;-59
2022/07/22 06:46:32;;;;;;;1.33;0.93;;;22.90;65.10;;;;;;6211178;22;44000;-60
2022/07/22 06:49:01;;;;;;;0.77;0.77;;;22.90;65.10;;;;;;6211832;22;43349;-60
2022/07/22 06:51:32;;;;;;;0.65;0.65;;;22.90;65.00;;;;;;6211432;22;43425;-60
2022/07/22 06:53:59;;;;;;;1.15;1.00;;;22.90;65.00;;;;;;6211454;22;43479;-60
2022/07/22 06:56:27;;;;;;;0.90;0.70;;;22.90;65.00;;;;;;6211699;22;43790;-60
2022/07/22 06:58:54;;;;;;;0.70;0.70;;;22.90;65.10;;;;;;6213774;22;43454;-60
2022/07/22 07:01:22;;;;;;;0.70;0.70;;;22.90;65.00;;;;;;6210821;22;43495;-60
2022/07/22 07:03:53;;;;;;;0.93;0.82;;;22.90;65.00;;;;;;6212355;22;43672;-60
2022/07/22 07:06:20;;;;;;;0.68;0.68;;;22.80;64.90;;;;;;6211367;22;44655;-60
2022/07/22 07:09:14;;;;;;;1.10;0.80;;;22.90;65.00;;;;;;6208010;22;43913;-60
2022/07/22 07:11:47;;;;;;;0.73;0.73;;;22.80;64.90;;;;;;6211203;22;43446;-60
2022/07/22 07:14:30;;;;;;;1.45;0.75;;;22.80;64.90;;;;;;6210800;22;43558;-60
2022/07/22 07:16:57;;;;;;;1.20;0.90;;;22.80;64.90;;;;;;6213332;22;44082;-59
2022/07/22 07:19:25;;;;;;;0.70;0.70;;;22.90;64.90;;;;;;6207470;22;43958;-60
2022/07/22 07:21:52;;;;;;;0.93;0.82;;;22.90;64.90;;;;;;6184746;22;43410;-60
2022/07/22 07:24:20;;;;;;;1.98;0.75;;;22.80;64.80;;;;;;6211961;22;43461;-60
2022/07/22 07:26:48;;;;;;;1.23;0.73;;;22.90;64.90;;;;;;6210308;22;44885;-60
2022/07/22 07:29:16;;;;;;;1.27;0.60;;;22.90;64.90;;;;;;6209625;22;43398;-60
2022/07/22 07:31:50;;;;;;;0.90;0.80;;;22.90;64.90;;;;;;6210091;22;43443;-60
2022/07/22 07:34:18;;;;;;;1.00;0.90;;;22.90;64.90;;;;;;6211799;22;43557;-60
2022/07/22 07:36:45;;;;;;;2.30;0.80;;;22.90;64.90;;;;;;6210002;22;44716;-60
2022/07/22 07:39:14;;;;;;;1.17;0.88;;;22.90;64.80;;;;;;6210097;22;43345;-60
2022/07/22 07:41:44;;;;;;;1.05;0.75;;;22.90;64.80;;;;;;6210510;22;43460;-60
2022/07/22 07:44:19;;;;;;;0.80;0.80;;;22.90;64.80;;;;;;6209955;22;43549;-60
2022/07/22 07:46:47;;;;;;;0.88;0.73;;;22.90;64.90;;;;;;6210307;22;44961;-60
2022/07/22 07:49:15;;;;;;;1.00;0.73;;;22.90;64.90;;;;;;6209923;22;43342;-59
2022/07/22 07:51:42;;;;;;;0.55;0.55;;;22.90;64.80;;;;;;6211851;22;43419;-60
2022/07/22 07:54:10;;;;;;;1.63;0.75;;;22.90;64.90;;;;;;6209987;22;43444;-60
2022/07/22 07:56:38;;;;;;;0.77;0.77;;;22.90;64.80;;;;;;6209584;22;44898;-60
2022/07/22 07:59:06;;;;;;;0.85;0.60;;;22.90;64.80;;;;;;6210268;22;43986;-60
2022/07/22 08:01:53;;;;;;;1.30;0.70;;;22.90;64.80;;;;;;6212333;22;43410;-60
2022/07/22 08:04:27;;;;;;;1.05;0.68;;;22.90;64.80;;;;;;6209941;22;43479;-60
2022/07/22 08:07:07;;;;;;;1.10;0.70;;;22.90;64.80;;;;;;6210393;22;43780;-60
2022/07/22 08:09:37;;;;;;;0.70;0.70;;;22.80;64.80;;;;;;6210434;22;43946;-60
2022/07/22 08:12:11;;;;;;;0.70;0.70;;;22.80;64.80;;;;;;6209604;22;43496;-60
2022/07/22 08:14:50;;;;;;;0.88;0.85;;;22.90;64.90;;;;;;6210334;22;43525;-60
2022/07/22 08:17:24;;;;;;;0.77;0.70;;;22.80;64.80;;;;;;6210677;22;43783;-60
2022/07/22 08:19:52;;;;;;;1.20;0.65;;;22.80;64.80;;;;;;6209830;22;43350;-60
2022/07/22 08:22:19;;;;;;;0.52;0.52;;;22.90;64.90;;;;;;6210078;22;43389;-60
2022/07/22 08:24:48;;;;;;;1.67;0.90;;;22.80;64.80;;;;;;6210576;22;43568;-60
2022/07/22 08:27:17;;;;;;;1.98;1.05;;;22.90;64.90;;;;;;6211010;22;44141;-60
2022/07/22 08:29:44;;;;;;;1.75;1.00;;;22.90;65.10;;;;;;6215484;22;43909;-61
2022/07/22 08:32:12;;;;;;;1.80;0.80;;;22.90;65.10;;;;;;6214941;22;43405;-60
2022/07/22 08:34:40;;;;;;;2.03;0.90;;;22.90;65.20;;;;;;6216382;22;43424;-60
2022/07/22 08:37:08;;;;;;;1.67;0.90;;;22.90;65.30;;;;;;6190539;22;46195;-60
2022/07/22 08:39:36;;;;;;;1.25;0.80;;;22.90;65.20;;;;;;6215450;22;43658;-60
2022/07/22 08:42:03;;;;;;;2.20;1.13;;;22.90;65.20;;;;;;6215758;22;43459;-60
2022/07/22 08:44:32;;;;;;;1.90;1.00;;;22.90;65.20;;;;;;6216176;22;43487;-60
2022/07/22 08:47:01;;;;;;;1.85;0.73;;;22.90;65.20;;;;;;6242787;22;43790;-60
2022/07/22 08:50:08;;;;;;;0.70;0.70;;;22.90;65.30;;;;;;6241454;22;43406;-60
2022/07/22 08:52:49;;;;;;;0.93;0.70;;;22.90;65.40;;;;;;6237975;22;43335;-60
2022/07/22 08:55:17;;;;;;;1.10;0.88;;;22.90;65.30;;;;;;6212795;22;43559;-60
2022/07/22 08:57:46;;;;;;;1.50;0.88;;;22.90;65.90;;;;;;6214553;22;43764;-60
2022/07/22 09:00:17;;;;;;;1.33;0.75;;;22.90;65.30;;;;;;6240151;22;43379;-60
2022/07/22 09:02:45;;;;;;;0.80;0.80;;;22.90;65.30;;;;;;6215775;22;43414;-60
2022/07/22 09:05:16;;;;;;;1.48;0.70;;;22.90;65.20;;;;;;6215484;22;43964;-60
2022/07/22 09:08:06;;;;;;;1.13;1.00;;;22.90;65.20;;;;;;6213863;22;44017;-60
2022/07/22 09:10:55;;;;;;;0.98;0.77;;;22.90;65.10;;;;;;6215211;22;43846;-60
2022/07/22 09:13:47;;;;;;;0.80;0.60;;;22.90;65.20;;;;;;6241386;22;43443;-60
2022/07/22 09:16:45;;;;;;;1.25;0.90;;;22.90;65.10;;;;;;6241911;22;43402;-60
2022/07/22 09:19:39;;;;;;;1.10;1.00;;;22.90;65.10;;;;;;6236428;22;44959;-60
2022/07/22 09:22:41;;;;;;;1.45;1.02;;;22.90;65.10;;;;;;6224407;22;43472;-60
2022/07/22 09:25:37;;;;;;;2.00;0.80;;;22.90;65.20;;;;;;6238905;22;43488;-60
2022/07/22 09:28:27;;;;;;;1.00;0.65;;;22.90;65.10;;;;;;6214698;22;43504;-60
2022/07/22 09:31:30;;;;;;;0.70;0.68;;;22.90;65.10;;;;;;6241570;22;44973;-60
2022/07/22 09:34:31;;;;;;;3.17;1.23;;;22.90;65.10;;;;;;6225613;22;43403;-60
2022/07/22 09:37:08;;;;;;;0.88;0.80;;;22.90;65.10;;;;;;6214893;22;43399;-60
2022/07/22 09:39:35;;;;;;;1.50;0.68;;;22.80;65.00;;;;;;6242407;22;43407;-60
2022/07/22 09:42:06;;;;;;;1.30;0.75;;;22.80;65.00;;;;;;6214532;22;44169;-61
2022/07/22 09:44:34;;;;;;;0.97;0.80;;;22.90;65.00;;;;;;6243033;22;43318;-61
2022/07/22 09:47:28;;;;;;;0.70;0.65;;;22.80;65.00;;;;;;6215707;22;43301;-60
2022/07/22 09:50:23;;;;;;;1.30;0.80;;;22.80;65.00;;;;;;6242359;22;43593;-60
2022/07/22 09:53:09;;;;;;;0.70;0.68;;;22.80;65.10;;;;;;6241965;22;44628;-60
2022/07/22 09:55:41;;;;;;;1.05;0.60;;;22.80;65.70;;;;;;6215571;22;44063;-60
2022/07/22 09:58:09;;;;;;;0.82;0.70;;;22.80;65.10;;;;;;6242089;22;43455;-60
2022/07/22 10:00:37;;;;;;;0.60;0.60;;;22.90;65.10;;;;;;6215119;22;43550;-60
2022/07/22 10:03:06;;;;;;;1.00;0.60;;;22.80;65.00;;;;;;6214531;22;43760;-60
2022/07/22 10:05:39;;;;;;;1.27;0.70;;;22.90;65.00;;;;;;6215705;22;43885;-60
2022/07/22 10:08:08;;;;;;;0.50;0.50;;;22.90;65.00;;;;;;6242960;22;43404;-60
2022/07/22 10:10:38;;;;;;;1.23;0.70;;;22.90;65.00;;;;;;6242369;22;43400;-61
2022/07/22 10:13:07;;;;;;;1.20;1.10;;;22.80;65.00;;;;;;6218589;22;43849;-60
2022/07/22 10:15:37;;;;;;;1.38;0.80;;;22.90;65.00;;;;;;6218739;22;43690;-60
2022/07/22 10:18:13;;;;;;;1.70;0.70;;;22.80;65.00;;;;;;6215332;22;43404;-60
2022/07/22 10:20:41;;;;;;;0.85;0.70;;;22.90;65.00;;;;;;6218191;22;43484;-60
2022/07/22 10:23:11;;;;;;;1.65;0.88;;;22.90;65.10;;;;;;6218075;22;44773;-60
2022/07/22 10:25:58;;;;;;;;;;;22.90;65.10;;;;;;6219130;22;43808;-60
2022/07/22 10:28:34;;;;;;;2.40;0.68;;;22.90;65.10;;;;;;6218196;22;43960;-61
2022/07/22 10:31:18;;;;;;;0.88;0.50;;;22.80;65.20;;;;;;6245813;22;43403;-60
2022/07/22 10:33:52;;;;;;;1.20;0.60;;;22.90;65.20;;;;;;6245692;22;44188;-60
2022/07/22 10:36:38;;;;;;;0.95;0.73;;;22.90;65.10;;;;;;6217270;22;43536;-60
2022/07/22 10:39:12;;;;;;;1.88;0.82;;;22.90;65.20;;;;;;6218139;22;43399;-60
2022/07/22 10:41:44;;;;;;;0.75;0.60;;;22.90;65.10;;;;;;6244831;22;43435;-60
2022/07/22 10:44:47;;;;;;;2.00;0.80;;;22.90;65.10;;;;;;6245314;22;44108;-60
2022/07/22 10:47:56;;;;;;;0.60;0.60;;;22.90;65.00;;;;;;6244360;22;43284;-62
2022/07/22 10:50:41;;;;;;;1.23;0.75;;;22.90;65.00;;;;;;6212203;22;43520;-60
2022/07/22 10:53:17;;;;;;;2.78;0.90;;;23.00;65.10;;;;;;6244143;22;43507;-60
2022/07/22 10:56:13;;;;;;;0.85;0.80;;;23.00;65.10;;;;;;6245091;22;44113;-61
2022/07/22 10:58:46;;;;;;;0.63;0.60;;;23.00;65.10;;;;;;6245165;22;43424;-60
2022/07/22 11:01:16;;;;;;;1.50;0.70;;;23.00;65.10;;;;;;6244518;22;43447;-60
2022/07/22 11:03:46;;;;;;;1.63;0.67;;;23.00;65.10;;;;;;6244365;22;43390;-60
2022/07/22 11:06:26;;;;;;;1.27;0.90;;;23.00;65.10;;;;;;6244651;22;44111;-60
2022/07/22 11:08:56;;;;;;;1.73;1.00;;;23.00;65.00;;;;;;6245914;22;43351;-60
2022/07/22 11:11:33;;;;;;;1.00;0.65;;;23.00;65.00;;;;;;6245247;22;43393;-59
2022/07/22 11:14:01;;;;;;;1.40;0.73;;;23.00;65.00;;;;;;6245259;22;43361;-60
2022/07/22 11:16:28;;;;;;;0.80;0.70;;;23.00;65.00;;;;;;6245179;22;44013;-60
2022/07/22 11:18:59;;;;;;;2.33;0.80;;;23.00;65.10;;;;;;6245794;22;43987;-60
2022/07/22 11:21:32;;;;;;;1.25;0.77;;;23.00;65.10;;;;;;6244701;22;43486;-60
2022/07/22 11:24:07;;;;;;;1.95;0.75;;;23.00;65.00;;;;;;6242995;22;43337;-60
2022/07/22 11:26:44;;;;;;;0.63;0.60;;;23.00;65.10;;;;;;6243424;22;44908;-60
2022/07/22 11:29:34;;;;;;;0.65;0.60;;;23.10;65.00;;;;;;6242791;22;43378;-60
2022/07/22 11:32:05;;;;;;;1.50;0.80;;;23.10;65.10;;;;;;6243290;22;43355;-60
2022/07/22 11:34:32;;;;;;;1.17;0.63;;;23.00;65.10;;;;;;6243697;22;43395;-59
2022/07/22 11:36:59;;;;;;;2.50;0.82;;;23.00;65.10;;;;;;6243696;22;43855;-59
2022/07/22 11:39:29;;;;;;;1.17;0.60;;;23.10;65.10;;;;;;6243185;22;43371;-59
2022/07/22 11:41:59;;;;;;;1.25;0.73;;;23.00;65.00;;;;;;6242864;22;43438;-61
2022/07/22 11:44:30;;;;;;;0.70;0.70;;;23.10;65.10;;;;;;6243592;22;43474;-60
2022/07/22 11:47:00;;;;;;;0.93;0.67;;;23.10;65.10;;;;;;6243942;22;43841;-60
2022/07/22 11:49:30;;;;;;;1.48;0.90;;;23.10;65.10;;;;;;6216504;22;43428;-59
2022/07/22 11:51:58;;;;;;;1.17;0.65;;;23.10;65.10;;;;;;6243289;22;43388;-60
2022/07/22 11:54:26;;;;;;;1.63;0.80;;;23.10;65.10;;;;;;6243572;22;43602;-60
2022/07/22 11:56:54;;;;;;;0.93;0.60;;;23.00;65.00;;;;;;6243083;22;43717;-60
2022/07/22 11:59:24;;;;;;;0.50;0.50;;;23.10;65.10;;;;;;6243382;22;43670;-61
2022/07/22 12:01:53;;;;;;;1.23;0.75;;;23.10;65.10;;;;;;6243251;22;44016;-60
2022/07/22 12:04:25;;;;;;;0.80;0.68;;;23.10;65.00;;;;;;6242538;22;43428;-60
2022/07/22 12:06:57;;;;;;;1.80;0.75;;;23.10;65.10;;;;;;6215956;22;43747;-60
2022/07/22 12:09:33;;;;;;;1.05;0.60;;;23.10;65.10;;;;;;6243578;22;43421;-60
2022/07/22 12:12:01;;;;;;;0.82;0.50;;;23.10;65.00;;;;;;6243587;22;43332;-60
2022/07/22 12:14:31;;;;;;;1.15;0.63;;;23.10;65.00;;;;;;6243150;22;43609;-60
2022/07/22 12:17:00;;;;;;;2.28;0.90;;;23.10;65.00;;;;;;6242934;22;45084;-60
2022/07/22 12:19:30;;;;;;;0.60;0.60;;;23.10;64.90;;;;;;6243003;22;43702;-60
2022/07/22 12:22:03;;;;;;;0.47;0.47;;;23.10;64.90;;;;;;6243352;22;43386;-61
2022/07/22 12:24:57;;;;;;;1.27;0.50;;;23.10;64.90;;;;;;6215729;22;43487;-60
2022/07/22 12:27:25;;;;;;;0.60;0.60;;;23.10;64.90;;;;;;6243067;22;44209;-61
2022/07/22 12:29:52;;;;;;;0.70;0.50;;;23.10;65.00;;;;;;6243558;22;43315;-61
2022/07/22 12:32:23;;;;;;;1.83;0.68;;;23.10;65.00;;;;;;6242266;22;43347;-60
2022/07/22 12:34:53;;;;;;;0.60;0.60;;;23.10;65.00;;;;;;6242776;22;43462;-61
2022/07/22 12:37:27;;;;;;;1.63;0.70;;;23.10;65.00;;;;;;6243582;22;44021;-61
2022/07/22 12:40:04;;;;;;;0.50;0.50;;;23.10;65.00;;;;;;6243085;22;43351;-61
2022/07/22 12:42:33;;;;;;;0.90;0.70;;;23.10;65.00;;;;;;6242866;22;43324;-61
2022/07/22 12:45:17;;;;;;;1.60;0.70;;;23.10;65.00;;;;;;6242802;22;43403;-60
2022/07/22 12:48:01;;;;;;;0.70;0.70;;;23.10;65.00;;;;;;6243230;22;44941;-61
2022/07/22 12:50:30;;;;;;;0.85;0.70;;;23.10;64.90;;;;;;6242187;22;43523;-61
2022/07/22 12:53:04;;;;;;;0.85;0.52;;;23.10;64.90;;;;;;6242774;22;43376;-61
2022/07/22 12:55:56;;;;;;;1.58;0.75;;;23.10;64.90;;;;;;6243108;22;43487;-61
2022/07/22 12:58:29;;;;;;;1.13;0.60;;;23.10;64.80;;;;;;6243175;22;44768;-62
2022/07/22 13:00:59;;;;;;;0.70;0.70;;;23.10;64.70;;;;;;6243003;22;43471;-61
2022/07/22 13:03:30;;;;;;;1.98;0.90;;;23.10;64.60;;;;;;6242849;22;43665;-61
2022/07/22 13:06:00;;;;;;;0.95;0.60;;;23.10;64.50;;;;;;6243381;22;43440;-61
2022/07/22 13:08:28;;;;;;;1.52;0.82;;;23.10;64.60;;;;;;6215840;22;45086;-61
2022/07/22 13:11:12;;;;;;;0.77;0.68;;;23.10;64.60;;;;;;6243236;22;43348;-61